Terminal Aerodrome Forecast
Issued by NWS

Home | Current Version | Previous Version | Text Only | Print | Product List | Glossary On
Versions: 1 2 3 4 5 6 7 8 9 10 11 12 13 14 15 16 17 18 19 20 21 22 23 24 25 26 27 28 29 30 31
000
FTUS45 KGJT 232341
TAFASE
TAF
KASE 232341Z 2400/2424 32014G22KT P6SM VCTS SCT070CB OVC090
      TEMPO 2400/2404 VRB08KT -TSRA BKN050CB
     FM240400 15004KT P6SM OVC050
      TEMPO 2404/2407 4SM -TSRA OVC025CB
     FM240700 VRB03KT P6SM VCTS BKN050CB
     FM240900 VRB03KT P6SM BKN050
     FM241300 VRB03KT P6SM SCT090
     FM241800 32006KT P6SM VCTS SCT090CB BKN150
     FM242100 30007KT P6SM VCTS SCT070CB BKN120=

USA.gov is the U.S. government's official web portal to all federal, state and local government web resources and services.